Time,TemperatureF,DewpointF,PressureIn,WindDirection,WindDirectionDegrees,WindSpeedMPH,WindSpeedGustMPH,Humidity,HourlyPrecipIn,Conditions,Clouds,dailyrainin,SoftwareType,DateUTC
2013-07-10 00:01:00,72.5,67.1,29.71,SSW,213,0.0,0.0,83,0.00,,,0.24,VWS V14.00,2013-07-10 04:01:00,
2013-07-10 00:06:00,72.5,67.1,29.71,SSW,213,0.0,0.0,83,0.00,,,0.00,VWS V14.00,2013-07-10 04:06:00,
2013-07-10 00:11:00,72.5,67.1,29.71,SSW,213,0.0,0.0,83,0.00,,,0.00,VWS V14.00,2013-07-10 04:11:00,
2013-07-10 00:16:00,72.5,67.1,29.71,SSW,213,0.0,0.0,83,0.00,,,0.00,VWS V14.00,2013-07-10 04:16:00,
2013-07-10 00:21:00,72.5,67.1,29.71,SSW,213,0.0,0.0,83,0.00,,,0.00,VWS V14.00,2013-07-10 04:21:00,
2013-07-10 00:26:00,72.5,67.1,29.71,SSW,213,0.0,0.0,83,0.00,,,0.00,VWS V14.00,2013-07-10 04:26:00,
2013-07-10 00:31:00,72.5,67.1,29.71,SSW,213,0.0,0.0,83,0.00,,,0.00,VWS V14.00,2013-07-10 04:31:00,
2013-07-10 00:36:00,72.5,67.4,29.71,SSW,213,0.0,0.0,84,0.00,,,0.00,VWS V14.00,2013-07-10 04:36:00,
2013-07-10 00:41:00,72.5,67.4,29.71,SSW,213,0.0,0.0,84,0.00,,,0.00,VWS V14.00,2013-07-10 04:41:00,
2013-07-10 00:46:00,72.3,67.2,29.71,SSW,213,0.0,0.0,84,0.00,,,0.00,VWS V14.00,2013-07-10 04:46:00,
2013-07-10 00:51:00,72.3,67.2,29.71,SSW,213,0.0,0.0,84,0.00,,,0.00,VWS V14.00,2013-07-10 04:51:00,
2013-07-10 00:56:00,72.3,67.2,29.71,SSW,213,0.0,0.0,84,0.00,,,0.00,VWS V14.00,2013-07-10 04:56:00,
2013-07-10 01:01:00,72.3,67.2,29.71,SSW,213,0.0,0.0,84,0.00,,,0.00,VWS V14.00,2013-07-10 05:01:00,
2013-07-10 01:06:00,72.3,67.2,29.71,SSW,213,0.0,0.0,84,0.00,,,0.00,VWS V14.00,2013-07-10 05:06:00,
2013-07-10 01:11:00,72.3,67.6,29.71,SSW,213,0.0,0.0,85,0.00,,,0.00,VWS V14.00,2013-07-10 05:11:00,
2013-07-10 01:16:00,72.3,67.6,29.71,SW,214,0.0,0.0,85,0.00,,,0.00,VWS V14.00,2013-07-10 05:16:00,
2013-07-10 01:21:00,72.3,67.6,29.71,SW,214,0.0,0.0,85,0.00,,,0.00,VWS V14.00,2013-07-10 05:21:00,
2013-07-10 01:26:00,72.3,67.6,29.71,SW,214,0.0,0.0,85,0.00,,,0.00,VWS V14.00,2013-07-10 05:26:00,
2013-07-10 01:31:00,72.1,67.4,29.71,SW,214,0.0,0.0,85,0.00,,,0.00,VWS V14.00,2013-07-10 05:31:00,
2013-07-10 01:36:00,72.3,67.9,29.71,SW,214,0.0,0.0,86,0.00,,,0.00,VWS V14.00,2013-07-10 05:36:00,
2013-07-10 01:41:00,72.3,67.9,29.68,SW,214,0.0,0.0,86,0.00,,,0.00,VWS V14.00,2013-07-10 05:41:00,
2013-07-10 01:46:00,72.3,67.9,29.68,SW,214,0.0,0.0,86,0.00,,,0.00,VWS V14.00,2013-07-10 05:46:00,
2013-07-10 01:51:00,72.3,67.9,29.68,SW,214,0.0,0.0,86,0.00,,,0.00,VWS V14.00,2013-07-10 05:51:00,
2013-07-10 01:56:00,72.3,67.9,29.68,SW,214,0.0,0.0,86,0.00,,,0.00,VWS V14.00,2013-07-10 05:56:00,
2013-07-10 02:01:00,72.3,67.9,29.68,West,274,0.0,0.0,86,0.00,,,0.00,VWS V14.00,2013-07-10 06:01:00,
2013-07-10 02:06:00,72.5,68.4,29.68,WSW,250,0.0,0.0,87,0.00,,,0.00,VWS V14.00,2013-07-10 06:06:00,
2013-07-10 02:11:00,72.5,68.4,29.68,SW,227,0.0,0.0,87,0.00,,,0.00,VWS V14.00,2013-07-10 06:11:00,
2013-07-10 02:16:00,72.5,68.4,29.68,SW,229,0.0,0.0,87,0.00,,,0.00,VWS V14.00,2013-07-10 06:16:00,
2013-07-10 02:21:00,72.3,67.9,29.68,SW,229,0.0,0.0,86,0.00,,,0.00,VWS V14.00,2013-07-10 06:21:00,
2013-07-10 02:26:00,72.3,68.2,29.68,West,275,0.0,0.0,87,0.00,,,0.00,VWS V14.00,2013-07-10 06:26:00,
2013-07-10 02:31:00,72.3,68.2,29.68,SW,222,0.0,0.0,87,0.00,,,0.00,VWS V14.00,2013-07-10 06:31:00,
2013-07-10 02:36:00,72.3,68.2,29.68,SW,223,0.0,0.0,87,0.00,,,0.00,VWS V14.00,2013-07-10 06:36:00,
2013-07-10 02:41:00,72.3,68.2,29.68,SW,223,0.0,0.0,87,0.00,,,0.00,VWS V14.00,2013-07-10 06:41:00,
2013-07-10 02:46:00,72.3,68.2,29.68,SW,223,0.0,0.0,87,0.00,,,0.00,VWS V14.00,2013-07-10 06:46:00,
2013-07-10 02:51:00,72.3,68.2,29.68,SW,218,0.0,0.0,87,0.00,,,0.00,VWS V14.00,2013-07-10 06:51:00,
2013-07-10 02:56:00,72.3,68.2,29.68,NW,304,0.0,0.0,87,0.00,,,0.00,VWS V14.00,2013-07-10 06:56:00,
2013-07-10 03:01:00,72.3,68.2,29.68,WNW,294,0.0,0.0,87,0.00,,,0.00,VWS V14.00,2013-07-10 07:01:00,
2013-07-10 03:06:00,72.3,68.6,29.68,WSW,250,0.0,0.0,88,0.00,,,0.00,VWS V14.00,2013-07-10 07:06:00,
2013-07-10 03:11:00,72.3,68.6,29.68,WSW,246,0.0,0.0,88,0.00,,,0.00,VWS V14.00,2013-07-10 07:11:00,
2013-07-10 03:16:00,72.3,68.6,29.68,WSW,246,0.0,0.0,88,0.00,,,0.00,VWS V14.00,2013-07-10 07:16:00,
2013-07-10 03:21:00,72.1,68.4,29.68,WSW,245,0.0,0.0,88,0.00,,,0.00,VWS V14.00,2013-07-10 07:21:00,
2013-07-10 03:26:00,72.1,68.4,29.68,SW,234,0.0,0.0,88,0.00,,,0.00,VWS V14.00,2013-07-10 07:26:00,
2013-07-10 03:31:00,72.1,68.4,29.68,WNW,286,0.0,0.0,88,0.00,,,0.00,VWS V14.00,2013-07-10 07:31:00,
2013-07-10 03:36:00,72.3,68.6,29.68,SSW,199,0.0,0.0,88,0.00,,,0.00,VWS V14.00,2013-07-10 07:36:00,
2013-07-10 03:41:00,72.3,68.6,29.68,SSW,199,0.0,0.0,88,0.00,,,0.00,VWS V14.00,2013-07-10 07:41:00,
2013-07-10 03:46:00,72.1,68.4,29.65,West,263,0.0,0.0,88,0.00,,,0.00,VWS V14.00,2013-07-10 07:46:00,
2013-07-10 03:51:00,72.1,68.4,29.65,WSW,257,0.0,0.0,88,0.00,,,0.00,VWS V14.00,2013-07-10 07:51:00,
2013-07-10 03:56:00,72.1,68.4,29.65,WSW,257,0.0,0.0,88,0.00,,,0.00,VWS V14.00,2013-07-10 07:56:00,
2013-07-10 04:01:00,72.1,68.4,29.65,WSW,257,0.0,0.0,88,0.00,,,0.00,VWS V14.00,2013-07-10 08:01:00,
2013-07-10 04:06:00,72.1,68.4,29.65,SW,215,0.0,0.0,88,0.00,,,0.00,VWS V14.00,2013-07-10 08:06:00,
2013-07-10 04:11:00,72.1,68.7,29.65,SW,231,3.6,4.0,89,0.00,,,0.00,VWS V14.00,2013-07-10 08:11:00,
2013-07-10 04:16:00,72.1,68.7,29.68,WNW,300,0.0,0.0,89,0.00,,,0.00,VWS V14.00,2013-07-10 08:16:00,
2013-07-10 04:21:00,72.3,68.9,29.68,West,262,0.0,0.0,89,0.00,,,0.00,VWS V14.00,2013-07-10 08:21:00,
2013-07-10 04:26:00,72.3,68.9,29.68,WSW,243,0.0,0.0,89,0.00,,,0.00,VWS V14.00,2013-07-10 08:26:00,
2013-07-10 04:30:00,72.3,68.9,29.68,WSW,245,0.0,0.0,89,0.00,,,0.00,VWS V14.00,2013-07-10 08:30:00,
2013-07-10 04:35:00,72.3,68.9,29.68,WSW,245,0.0,0.0,89,0.00,,,0.00,VWS V14.00,2013-07-10 08:35:00,
2013-07-10 04:40:00,72.3,68.9,29.68,WSW,249,0.0,0.0,89,0.00,,,0.00,VWS V14.00,2013-07-10 08:40:00,
2013-07-10 04:41:00,72.3,68.9,29.68,WSW,249,0.0,0.0,89,0.00,,,0.00,VWS V14.00,2013-07-10 08:41:00,
2013-07-10 04:46:00,72.3,68.9,29.68,SW,231,0.0,3.1,89,0.00,,,0.00,VWS V14.00,2013-07-10 08:46:00,
2013-07-10 04:51:00,72.3,68.9,29.68,SW,232,0.0,0.0,89,0.00,,,0.00,VWS V14.00,2013-07-10 08:51:00,
2013-07-10 04:56:00,72.3,68.9,29.68,SW,226,2.2,2.2,89,0.00,,,0.00,VWS V14.00,2013-07-10 08:56:00,
2013-07-10 05:01:00,72.3,68.9,29.68,WSW,238,2.2,2.2,89,0.00,,,0.00,VWS V14.00,2013-07-10 09:01:00,
2013-07-10 05:06:00,72.3,68.9,29.68,SW,215,0.0,0.0,89,0.00,,,0.00,VWS V14.00,2013-07-10 09:06:00,
2013-07-10 05:11:00,72.3,68.9,29.68,WSW,238,3.1,3.1,89,0.00,,,0.00,VWS V14.00,2013-07-10 09:11:00,
2013-07-10 05:16:00,72.3,69.2,29.68,WSW,254,0.0,0.0,90,0.00,,,0.00,VWS V14.00,2013-07-10 09:16:00,
2013-07-10 05:21:00,72.3,69.2,29.68,SSW,199,0.0,2.2,90,0.00,,,0.00,VWS V14.00,2013-07-10 09:21:00,
2013-07-10 05:26:00,72.3,69.2,29.68,SSW,206,0.0,0.0,90,0.00,,,0.00,VWS V14.00,2013-07-10 09:26:00,
2013-07-10 05:31:00,72.3,69.2,29.68,WSW,240,2.7,4.0,90,0.00,,,0.00,VWS V14.00,2013-07-10 09:31:00,
2013-07-10 05:36:00,72.1,69.1,29.68,SW,222,0.0,0.0,90,0.00,,,0.00,VWS V14.00,2013-07-10 09:36:00,
2013-07-10 05:41:00,72.3,69.2,29.68,SW,222,0.0,0.0,90,0.00,,,0.00,VWS V14.00,2013-07-10 09:41:00,
2013-07-10 05:46:00,72.3,69.2,29.68,SW,222,0.0,0.0,90,0.00,,,0.00,VWS V14.00,2013-07-10 09:46:00,
2013-07-10 05:50:00,72.3,69.2,29.68,WSW,248,0.0,0.0,90,0.00,,,0.00,VWS V14.00,2013-07-10 09:50:00,
2013-07-10 05:55:00,72.3,69.2,29.68,SW,229,0.0,0.0,90,0.00,,,0.00,VWS V14.00,2013-07-10 09:55:00,
2013-07-10 06:00:00,72.3,69.2,29.68,SSW,205,0.0,0.0,90,0.00,,,0.00,VWS V14.00,2013-07-10 10:00:00,
2013-07-10 06:05:00,72.3,69.2,29.68,SW,225,0.0,0.0,90,0.00,,,0.00,VWS V14.00,2013-07-10 10:05:00,
2013-07-10 06:10:00,72.3,69.2,29.68,SW,225,0.0,0.0,90,0.00,,,0.00,VWS V14.00,2013-07-10 10:10:00,
2013-07-10 06:15:00,72.3,69.2,29.68,SW,225,0.0,0.0,90,0.00,,,0.00,VWS V14.00,2013-07-10 10:15:00,
2013-07-10 06:20:00,72.3,69.2,29.68,SW,225,0.0,0.0,90,0.00,,,0.00,VWS V14.00,2013-07-10 10:20:00,
2013-07-10 06:25:00,72.1,69.1,29.68,SW,225,0.0,0.0,90,0.00,,,0.00,VWS V14.00,2013-07-10 10:25:00,
2013-07-10 06:30:00,72.1,69.1,29.68,SW,225,0.0,0.0,90,0.00,,,0.00,VWS V14.00,2013-07-10 10:30:00,
2013-07-10 06:35:00,72.3,69.2,29.68,SW,225,0.0,0.0,90,0.00,,,0.00,VWS V14.00,2013-07-10 10:35:00,
2013-07-10 06:40:00,72.3,69.2,29.68,SW,225,0.0,0.0,90,0.00,,,0.00,VWS V14.00,2013-07-10 10:40:00,
2013-07-10 06:45:00,72.3,69.2,29.68,SW,225,0.0,0.0,90,0.00,,,0.00,VWS V14.00,2013-07-10 10:45:00,
2013-07-10 06:50:00,72.3,69.2,29.68,SW,225,0.0,0.0,90,0.00,,,0.00,VWS V14.00,2013-07-10 10:50:00,
2013-07-10 06:55:00,72.5,69.4,29.68,SW,225,0.0,0.0,90,0.00,,,0.00,VWS V14.00,2013-07-10 10:55:00,
2013-07-10 07:00:00,72.5,69.4,29.68,SW,225,0.0,0.0,90,0.00,,,0.00,VWS V14.00,2013-07-10 11:00:00,
2013-07-10 07:05:00,72.5,69.4,29.68,SW,225,0.0,0.0,90,0.00,,,0.00,VWS V14.00,2013-07-10 11:05:00,
2013-07-10 07:10:00,72.7,69.6,29.68,SW,219,0.0,2.2,90,0.00,,,0.00,VWS V14.00,2013-07-10 11:10:00,
2013-07-10 07:15:00,72.7,69.6,29.68,SW,221,0.0,0.0,90,0.00,,,0.00,VWS V14.00,2013-07-10 11:15:00,
2013-07-10 07:20:00,72.7,69.6,29.68,SW,225,0.0,2.2,90,0.00,,,0.00,VWS V14.00,2013-07-10 11:20:00,
2013-07-10 07:25:00,72.9,69.8,29.68,WSW,243,0.0,0.0,90,0.00,,,0.00,VWS V14.00,2013-07-10 11:25:00,
2013-07-10 07:30:00,72.9,69.8,29.68,WSW,243,0.0,0.0,90,0.00,,,0.00,VWS V14.00,2013-07-10 11:30:00,
2013-07-10 07:35:00,73.0,70.3,29.68,SW,229,0.0,2.7,91,0.00,,,0.00,VWS V14.00,2013-07-10 11:35:00,
2013-07-10 07:40:00,73.2,70.4,29.68,WSW,247,0.0,2.7,91,0.00,,,0.00,VWS V14.00,2013-07-10 11:40:00,
2013-07-10 07:45:00,73.4,70.3,29.68,WSW,247,0.0,0.0,90,0.00,,,0.00,VWS V14.00,2013-07-10 11:45:00,
2013-07-10 07:50:00,73.4,70.3,29.68,WSW,253,2.2,3.6,90,0.00,,,0.00,VWS V14.00,2013-07-10 11:50:00,
2013-07-10 07:55:00,73.6,70.5,29.68,WSW,256,2.7,2.7,90,0.00,,,0.00,VWS V14.00,2013-07-10 11:55:00,
2013-07-10 08:00:00,73.6,70.5,29.68,WSW,255,2.2,3.6,90,0.00,,,0.00,VWS V14.00,2013-07-10 12:00:00,
2013-07-10 08:05:00,73.8,70.7,29.68,SW,229,0.0,3.1,90,0.00,,,0.00,VWS V14.00,2013-07-10 12:05:00,
2013-07-10 08:10:00,73.8,70.7,29.68,SW,225,0.0,0.0,90,0.00,,,0.00,VWS V14.00,2013-07-10 12:10:00,
2013-07-10 08:15:00,73.9,70.8,29.68,WSW,243,0.0,0.0,90,0.00,,,0.00,VWS V14.00,2013-07-10 12:15:00,
2013-07-10 08:20:00,74.1,71.3,29.68,SSW,194,2.7,2.7,91,0.00,,,0.00,VWS V14.00,2013-07-10 12:20:00,
2013-07-10 08:25:00,74.3,71.5,29.65,SSW,205,0.0,0.0,91,0.00,,,0.00,VWS V14.00,2013-07-10 12:25:00,
2013-07-10 08:30:00,74.5,71.4,29.65,WSW,249,0.0,0.0,90,0.00,,,0.00,VWS V14.00,2013-07-10 12:30:00,
2013-07-10 08:35:00,74.7,71.5,29.65,WSW,251,3.6,3.6,90,0.00,,,0.00,VWS V14.00,2013-07-10 12:35:00,
2013-07-10 08:40:00,74.7,71.5,29.68,SSW,210,0.0,0.0,90,0.00,,,0.00,VWS V14.00,2013-07-10 12:40:00,
2013-07-10 08:45:00,74.7,71.5,29.68,South,185,0.0,0.0,90,0.00,,,0.00,VWS V14.00,2013-07-10 12:45:00,
2013-07-10 08:50:00,74.8,71.7,29.68,WSW,251,2.7,2.7,90,0.00,,,0.00,VWS V14.00,2013-07-10 12:50:00,
2013-07-10 08:55:00,75.0,71.9,29.68,WSW,239,0.0,0.0,90,0.00,,,0.00,VWS V14.00,2013-07-10 12:55:00,
2013-07-10 09:00:00,75.2,71.7,29.68,WSW,256,3.1,3.6,89,0.00,,,0.00,VWS V14.00,2013-07-10 13:00:00,
2013-07-10 09:05:00,75.6,72.1,29.68,WSW,248,3.6,3.6,89,0.00,,,0.00,VWS V14.00,2013-07-10 13:05:00,
2013-07-10 09:10:00,75.7,71.9,29.68,SW,227,2.7,2.7,88,0.00,,,0.00,VWS V14.00,2013-07-10 13:10:00,
2013-07-10 09:15:00,76.1,71.3,29.68,WSW,255,3.6,3.6,85,0.00,,,0.00,VWS V14.00,2013-07-10 13:15:00,
2013-07-10 09:20:00,76.3,71.1,29.68,South,169,0.0,4.0,84,0.00,,,0.00,VWS V14.00,2013-07-10 13:20:00,
2013-07-10 09:25:00,76.6,69.6,29.68,WSW,247,0.0,0.0,79,0.00,,,0.00,VWS V14.00,2013-07-10 13:25:00,
2013-07-10 09:30:00,76.8,68.7,29.68,WSW,240,4.0,4.0,76,0.00,,,0.00,VWS V14.00,2013-07-10 13:30:00,
2013-07-10 09:35:00,77.2,68.7,29.68,WSW,258,5.8,5.8,75,0.00,,,0.00,VWS V14.00,2013-07-10 13:35:00,
2013-07-10 09:40:00,77.4,66.4,29.68,NNE,29,2.2,3.6,69,0.00,,,0.00,VWS V14.00,2013-07-10 13:40:00,
2013-07-10 09:45:00,77.7,66.3,29.68,South,183,0.0,2.7,68,0.00,,,0.00,VWS V14.00,2013-07-10 13:45:00,
2013-07-10 09:50:00,77.9,66.1,29.68,WSW,257,2.7,2.7,67,0.00,,,0.00,VWS V14.00,2013-07-10 13:50:00,
2013-07-10 09:55:00,78.3,66.0,29.68,West,262,5.8,5.8,66,0.00,,,0.00,VWS V14.00,2013-07-10 13:55:00,
2013-07-10 10:00:00,78.4,64.3,29.68,SW,218,0.0,0.0,62,0.00,,,0.00,VWS V14.00,2013-07-10 14:00:00,
2013-07-10 10:05:00,78.6,63.6,29.68,South,170,0.0,0.0,60,0.00,,,0.00,VWS V14.00,2013-07-10 14:05:00,
2013-07-10 10:10:00,78.6,62.6,29.68,WSW,241,4.0,4.0,58,0.00,,,0.00,VWS V14.00,2013-07-10 14:10:00,
2013-07-10 10:15:00,78.6,62.6,29.68,SSW,194,4.0,4.0,58,0.00,,,0.00,VWS V14.00,2013-07-10 14:15:00,
2013-07-10 10:20:00,78.8,62.3,29.68,SSW,201,3.6,3.6,57,0.00,,,0.00,VWS V14.00,2013-07-10 14:20:00,
2013-07-10 10:25:00,78.8,60.2,29.68,SW,236,4.0,4.0,53,0.00,,,0.00,VWS V14.00,2013-07-10 14:25:00,
2013-07-10 10:30:00,78.8,60.2,29.68,SW,235,4.0,4.0,53,0.00,,,0.00,VWS V14.00,2013-07-10 14:30:00,
2013-07-10 10:35:00,79.0,60.9,29.68,WNW,284,4.9,4.9,54,0.00,,,0.00,VWS V14.00,2013-07-10 14:35:00,
2013-07-10 10:40:00,79.5,60.9,29.68,SSW,207,3.1,3.1,53,0.00,,,0.00,VWS V14.00,2013-07-10 14:40:00,
2013-07-10 10:45:00,79.9,59.6,29.68,WSW,246,3.1,4.0,50,0.00,,,0.00,VWS V14.00,2013-07-10 14:45:00,
2013-07-10 10:50:00,80.2,60.5,29.68,WSW,239,0.0,0.0,51,0.00,,,0.00,VWS V14.00,2013-07-10 14:50:00,
2013-07-10 10:55:00,80.6,60.3,29.68,West,272,3.6,3.6,50,0.00,,,0.00,VWS V14.00,2013-07-10 14:55:00,
2013-07-10 11:00:00,81.0,60.0,29.68,West,281,5.8,5.8,49,0.00,,,0.00,VWS V14.00,2013-07-10 15:00:00,
2013-07-10 11:05:00,81.3,59.8,29.68,South,189,3.1,3.1,48,0.00,,,0.00,VWS V14.00,2013-07-10 15:05:00,
2013-07-10 11:10:00,81.9,59.1,29.68,SSW,212,3.6,6.3,46,0.00,,,0.00,VWS V14.00,2013-07-10 15:10:00,
2013-07-10 11:15:00,82.0,58.6,29.68,West,270,3.6,3.6,45,0.00,,,0.00,VWS V14.00,2013-07-10 15:15:00,
2013-07-10 11:20:00,82.2,58.2,29.68,WSW,237,4.0,4.0,44,0.00,,,0.00,VWS V14.00,2013-07-10 15:20:00,
2013-07-10 11:25:00,82.6,59.1,29.68,West,265,3.1,3.1,45,0.00,,,0.00,VWS V14.00,2013-07-10 15:25:00,
2013-07-10 11:30:00,82.8,57.3,29.68,West,262,3.1,6.3,42,0.00,,,0.00,VWS V14.00,2013-07-10 15:30:00,
2013-07-10 11:35:00,82.0,57.4,29.68,WSW,246,2.2,2.7,43,0.00,,,0.00,VWS V14.00,2013-07-10 15:35:00,
2013-07-10 11:40:00,81.9,57.8,29.68,South,174,2.7,2.7,44,0.00,,,0.00,VWS V14.00,2013-07-10 15:40:00,
2013-07-10 11:45:00,82.2,58.8,29.68,WSW,255,2.2,3.1,45,0.00,,,0.00,VWS V14.00,2013-07-10 15:45:00,
2013-07-10 11:50:00,82.4,57.7,29.68,West,259,5.4,8.7,43,0.00,,,0.00,VWS V14.00,2013-07-10 15:50:00,
2013-07-10 11:55:00,82.6,57.2,29.68,SW,227,2.7,2.7,42,0.00,,,0.00,VWS V14.00,2013-07-10 15:55:00,
2013-07-10 12:00:00,82.4,57.7,29.68,WSW,254,2.7,5.4,43,0.00,,,0.00,VWS V14.00,2013-07-10 16:00:00,
2013-07-10 12:05:00,82.8,58.7,29.68,WNW,292,2.2,2.2,44,0.00,,,0.00,VWS V14.00,2013-07-10 16:05:00,
2013-07-10 12:10:00,83.3,59.8,29.68,SW,232,3.1,3.1,45,0.00,,,0.00,VWS V14.00,2013-07-10 16:10:00,
2013-07-10 12:15:00,83.7,57.5,29.68,WSW,256,5.8,5.8,41,0.00,,,0.00,VWS V14.00,2013-07-10 16:15:00,
2013-07-10 12:20:00,83.5,57.3,29.68,WSW,245,2.2,3.6,41,0.00,,,0.00,VWS V14.00,2013-07-10 16:20:00,
2013-07-10 12:25:00,84.0,59.1,29.65,West,259,7.6,7.6,43,0.00,,,0.00,VWS V14.00,2013-07-10 16:25:00,
2013-07-10 12:30:00,83.8,57.7,29.65,West,264,6.7,6.7,41,0.00,,,0.00,VWS V14.00,2013-07-10 16:30:00,
2013-07-10 12:35:00,83.1,57.0,29.65,West,270,2.7,4.0,41,0.00,,,0.00,VWS V14.00,2013-07-10 16:35:00,
2013-07-10 12:40:00,82.6,56.5,29.68,WSW,250,3.1,3.1,41,0.00,,,0.00,VWS V14.00,2013-07-10 16:40:00,
2013-07-10 12:45:00,82.2,57.5,29.68,WSW,256,3.6,3.6,43,0.00,,,0.00,VWS V14.00,2013-07-10 16:45:00,
2013-07-10 12:50:00,82.0,57.4,29.68,West,264,4.9,4.9,43,0.00,,,0.00,VWS V14.00,2013-07-10 16:50:00,
2013-07-10 12:55:00,81.9,57.2,29.65,West,262,3.1,4.0,43,0.00,,,0.00,VWS V14.00,2013-07-10 16:55:00,
2013-07-10 13:00:00,81.9,57.8,29.65,WSW,257,4.0,5.4,44,0.00,,,0.00,VWS V14.00,2013-07-10 17:00:00,
2013-07-10 13:05:00,82.4,57.7,29.65,WSW,237,5.8,5.8,43,0.00,,,0.00,VWS V14.00,2013-07-10 17:05:00,
2013-07-10 13:10:00,82.6,57.8,29.65,WSW,251,2.7,2.7,43,0.00,,,0.00,VWS V14.00,2013-07-10 17:10:00,
2013-07-10 13:15:00,82.6,57.8,29.65,WSW,241,0.0,3.1,43,0.00,,,0.00,VWS V14.00,2013-07-10 17:15:00,
2013-07-10 13:20:00,82.4,57.7,29.65,WSW,257,3.6,3.6,43,0.00,,,0.00,VWS V14.00,2013-07-10 17:20:00,
2013-07-10 13:25:00,82.4,58.3,29.65,West,274,3.6,3.6,44,0.00,,,0.00,VWS V14.00,2013-07-10 17:25:00,
2013-07-10 13:30:00,82.6,58.5,29.65,SW,233,4.0,4.0,44,0.00,,,0.00,VWS V14.00,2013-07-10 17:30:00,
2013-07-10 13:35:00,83.3,58.5,29.65,SSW,212,2.7,2.7,43,0.00,,,0.00,VWS V14.00,2013-07-10 17:35:00,
2013-07-10 13:40:00,83.8,58.3,29.65,West,270,5.4,5.4,42,0.00,,,0.00,VWS V14.00,2013-07-10 17:40:00,
2013-07-10 13:45:00,84.4,58.1,29.65,SSW,213,3.6,5.4,41,0.00,,,0.00,VWS V14.00,2013-07-10 17:45:00,
2013-07-10 13:50:00,84.9,58.6,29.65,WNW,288,6.3,6.3,41,0.00,,,0.00,VWS V14.00,2013-07-10 17:50:00,
2013-07-10 13:55:00,85.5,58.4,29.65,SSW,196,3.1,3.1,40,0.00,,,0.00,VWS V14.00,2013-07-10 17:55:00,
2013-07-10 14:00:00,85.5,57.0,29.65,SW,234,5.4,5.4,38,0.00,,,0.00,VWS V14.00,2013-07-10 18:00:00,
2013-07-10 14:05:00,85.5,57.7,29.65,WSW,258,3.1,3.1,39,0.00,,,0.00,VWS V14.00,2013-07-10 18:05:00,
2013-07-10 14:10:00,85.6,57.9,29.65,SSW,200,3.6,3.6,39,0.00,,,0.00,VWS V14.00,2013-07-10 18:10:00,
2013-07-10 14:15:00,85.8,58.0,29.62,WSW,253,4.0,4.0,39,0.00,,,0.00,VWS V14.00,2013-07-10 18:15:00,
2013-07-10 14:20:00,86.0,56.0,29.62,WSW,238,2.7,2.7,36,0.00,,,0.00,VWS V14.00,2013-07-10 18:20:00,
2013-07-10 14:25:00,86.2,56.1,29.62,SW,230,6.3,6.3,36,0.00,,,0.00,VWS V14.00,2013-07-10 18:25:00,
2013-07-10 14:30:00,86.2,55.3,29.62,SW,230,4.9,4.9,35,0.00,,,0.00,VWS V14.00,2013-07-10 18:30:00,
2013-07-10 14:35:00,86.0,56.0,29.62,WSW,244,4.0,4.0,36,0.00,,,0.00,VWS V14.00,2013-07-10 18:35:00,
2013-07-10 14:40:00,86.0,56.7,29.62,WSW,255,5.8,5.8,37,0.00,,,0.00,VWS V14.00,2013-07-10 18:40:00,
2013-07-10 14:45:00,85.8,56.6,29.62,SSW,208,4.9,4.9,37,0.00,,,0.00,VWS V14.00,2013-07-10 18:45:00,
2013-07-10 14:50:00,85.5,56.2,29.62,SW,229,3.1,3.1,37,0.00,,,0.00,VWS V14.00,2013-07-10 18:50:00,
2013-07-10 14:55:00,85.8,55.8,29.59,West,268,5.4,5.4,36,0.00,,,0.00,VWS V14.00,2013-07-10 18:55:00,
2013-07-10 15:00:00,86.4,57.0,29.59,WNW,295,4.0,4.0,37,0.00,,,0.00,VWS V14.00,2013-07-10 19:00:00,
2013-07-10 15:05:00,86.7,57.4,29.59,SSW,212,4.0,6.3,37,0.00,,,0.00,VWS V14.00,2013-07-10 19:05:00,
2013-07-10 15:10:00,86.9,56.0,29.59,WSW,243,3.6,4.0,35,0.00,,,0.00,VWS V14.00,2013-07-10 19:10:00,
2013-07-10 15:15:00,87.8,56.0,29.59,WSW,249,2.7,2.7,34,0.00,,,0.00,VWS V14.00,2013-07-10 19:15:00,
2013-07-10 15:20:00,88.5,55.8,29.59,WSW,237,2.7,2.7,33,0.00,,,0.00,VWS V14.00,2013-07-10 19:20:00,
2013-07-10 15:25:00,89.1,55.4,29.59,West,279,4.0,5.4,32,0.00,,,0.00,VWS V14.00,2013-07-10 19:25:00,
2013-07-10 15:30:00,88.9,56.1,29.59,SW,236,2.7,4.0,33,0.00,,,0.00,VWS V14.00,2013-07-10 19:30:00,
2013-07-10 15:35:00,88.7,55.9,29.59,WSW,249,5.4,5.4,33,0.00,,,0.00,VWS V14.00,2013-07-10 19:35:00,
2013-07-10 15:40:00,88.7,55.9,29.59,WSW,237,0.0,0.0,33,0.00,,,0.00,VWS V14.00,2013-07-10 19:40:00,
2013-07-10 15:45:00,88.2,55.5,29.59,SW,235,2.7,6.3,33,0.00,,,0.00,VWS V14.00,2013-07-10 19:45:00,
2013-07-10 15:50:00,88.0,55.3,29.59,WSW,252,3.6,4.0,33,0.00,,,0.00,VWS V14.00,2013-07-10 19:50:00,
2013-07-10 15:55:00,88.2,55.5,29.59,SW,230,2.7,2.7,33,0.00,,,0.00,VWS V14.00,2013-07-10 19:55:00,
2013-07-10 16:00:00,88.5,55.8,29.59,SW,223,2.7,3.6,33,0.00,,,0.00,VWS V14.00,2013-07-10 20:00:00,
2013-07-10 16:05:00,89.2,55.5,29.59,WSW,246,5.4,5.4,32,0.00,,,0.00,VWS V14.00,2013-07-10 20:05:00,
2013-07-10 16:10:00,90.0,55.3,29.59,WNW,294,2.7,3.6,31,0.00,,,0.00,VWS V14.00,2013-07-10 20:10:00,
2013-07-10 16:15:00,90.5,55.8,29.59,WSW,240,2.2,3.1,31,0.00,,,0.00,VWS V14.00,2013-07-10 20:15:00,
2013-07-10 16:20:00,90.7,56.8,29.59,WSW,246,3.6,3.6,32,0.00,,,0.00,VWS V14.00,2013-07-10 20:20:00,
2013-07-10 16:25:00,91.2,57.3,29.59,WSW,253,2.7,2.7,32,0.00,,,0.00,VWS V14.00,2013-07-10 20:25:00,
2013-07-10 16:30:00,91.0,56.2,29.59,SSW,213,2.7,2.7,31,0.00,,,0.00,VWS V14.00,2013-07-10 20:30:00,
2013-07-10 16:35:00,90.3,55.6,29.59,SW,230,0.0,0.0,31,0.00,,,0.00,VWS V14.00,2013-07-10 20:35:00,
2013-07-10 16:40:00,89.4,54.8,29.59,WSW,256,3.1,3.1,31,0.00,,,0.00,VWS V14.00,2013-07-10 20:40:00,
2013-07-10 16:45:00,88.2,54.6,29.59,SW,236,2.7,2.7,32,0.00,,,0.00,VWS V14.00,2013-07-10 20:45:00,
2013-07-10 16:50:00,87.6,55.0,29.59,WSW,251,2.7,2.7,33,0.00,,,0.00,VWS V14.00,2013-07-10 20:50:00,
2013-07-10 16:55:00,88.0,56.1,29.56,SSW,212,3.1,3.1,34,0.00,,,0.00,VWS V14.00,2013-07-10 20:55:00,
2013-07-10 17:00:00,87.8,56.0,29.56,West,264,4.0,4.0,34,0.00,,,0.00,VWS V14.00,2013-07-10 21:00:00,
2013-07-10 17:05:00,86.7,55.0,29.56,WSW,248,2.7,4.0,34,0.00,,,0.00,VWS V14.00,2013-07-10 21:05:00,
2013-07-10 17:10:00,85.8,55.8,29.56,SW,221,3.1,3.1,36,0.00,,,0.00,VWS V14.00,2013-07-10 21:10:00,
2013-07-10 17:15:00,85.8,57.3,29.56,WSW,238,0.0,2.7,38,0.00,,,0.00,VWS V14.00,2013-07-10 21:15:00,
2013-07-10 17:20:00,86.4,56.3,29.56,South,189,2.2,2.2,36,0.00,,,0.00,VWS V14.00,2013-07-10 21:20:00,
2013-07-10 17:25:00,86.9,57.5,29.56,SSE,153,2.2,2.7,37,0.00,,,0.00,VWS V14.00,2013-07-10 21:25:00,
2013-07-10 17:30:00,87.1,56.1,29.56,SW,217,3.6,3.6,35,0.00,,,0.00,VWS V14.00,2013-07-10 21:30:00,
2013-07-10 17:35:00,87.4,56.5,29.56,WSW,257,4.0,4.9,35,0.00,,,0.00,VWS V14.00,2013-07-10 21:35:00,
2013-07-10 17:40:00,87.1,55.3,29.56,WSW,237,0.0,0.0,34,0.00,,,0.00,VWS V14.00,2013-07-10 21:40:00,
2013-07-10 17:45:00,86.4,55.5,29.56,SW,233,0.0,0.0,35,0.00,,,0.00,VWS V14.00,2013-07-10 21:45:00,
2013-07-10 17:50:00,86.0,56.0,29.56,SW,214,3.1,3.1,36,0.00,,,0.00,VWS V14.00,2013-07-10 21:50:00,
2013-07-10 17:55:00,85.5,57.0,29.56,NW,312,0.0,0.0,38,0.00,,,0.00,VWS V14.00,2013-07-10 21:55:00,
2013-07-10 18:00:00,84.9,57.2,29.56,WSW,246,2.7,2.7,39,0.00,,,0.00,VWS V14.00,2013-07-10 22:00:00,
2013-07-10 18:05:00,84.2,55.9,29.56,SW,232,2.7,2.7,38,0.00,,,0.00,VWS V14.00,2013-07-10 22:05:00,
2013-07-10 18:10:00,83.7,56.1,29.56,WSW,253,3.6,3.6,39,0.00,,,0.00,VWS V14.00,2013-07-10 22:10:00,
2013-07-10 18:15:00,82.9,55.5,29.56,NNW,340,0.0,2.2,39,0.00,,,0.00,VWS V14.00,2013-07-10 22:15:00,
2013-07-10 18:20:00,82.6,55.8,29.56,West,275,3.1,4.0,40,0.00,,,0.00,VWS V14.00,2013-07-10 22:20:00,
2013-07-10 18:25:00,82.0,56.0,29.56,WSW,249,0.0,0.0,41,0.00,,,0.00,VWS V14.00,2013-07-10 22:25:00,
2013-07-10 18:30:00,81.9,56.5,29.56,South,177,3.6,4.0,42,0.00,,,0.00,VWS V14.00,2013-07-10 22:30:00,
2013-07-10 18:35:00,81.7,56.4,29.56,SSW,203,3.1,3.6,42,0.00,,,0.00,VWS V14.00,2013-07-10 22:35:00,
2013-07-10 18:40:00,81.7,56.4,29.56,WSW,241,2.7,2.7,42,0.00,,,0.00,VWS V14.00,2013-07-10 22:40:00,
2013-07-10 18:45:00,81.5,56.9,29.56,West,271,3.6,3.6,43,0.00,,,0.00,VWS V14.00,2013-07-10 22:45:00,
2013-07-10 18:50:00,81.3,56.1,29.56,SW,231,3.6,3.6,42,0.00,,,0.00,VWS V14.00,2013-07-10 22:50:00,
2013-07-10 18:55:00,81.3,56.1,29.56,WSW,256,2.2,2.7,42,0.00,,,0.00,VWS V14.00,2013-07-10 22:55:00,
2013-07-10 19:00:00,81.1,55.9,29.56,WSW,241,2.2,2.7,42,0.00,,,0.00,VWS V14.00,2013-07-10 23:00:00,
2013-07-10 19:05:00,81.1,56.5,29.56,WSW,257,6.3,6.3,43,0.00,,,0.00,VWS V14.00,2013-07-10 23:05:00,
2013-07-10 19:10:00,81.0,55.7,29.56,WSW,246,3.1,3.1,42,0.00,,,0.00,VWS V14.00,2013-07-10 23:10:00,
2013-07-10 19:15:00,81.0,56.4,29.56,WSW,249,2.7,3.1,43,0.00,,,0.00,VWS V14.00,2013-07-10 23:15:00,
2013-07-10 19:20:00,80.6,56.1,29.56,NW,314,3.1,4.9,43,0.00,,,0.00,VWS V14.00,2013-07-10 23:20:00,
2013-07-10 19:25:00,80.6,56.1,29.56,West,269,2.7,4.0,43,0.00,,,0.00,VWS V14.00,2013-07-10 23:25:00,
2013-07-10 19:30:00,80.4,56.5,29.56,WNW,301,4.0,4.0,44,0.00,,,0.00,VWS V14.00,2013-07-10 23:30:00,
2013-07-10 19:35:00,80.2,56.4,29.56,WSW,244,2.7,2.7,44,0.00,,,0.00,VWS V14.00,2013-07-10 23:35:00,
2013-07-10 19:40:00,80.1,56.2,29.59,WNW,302,0.0,2.7,44,0.00,,,0.00,VWS V14.00,2013-07-10 23:40:00,
2013-07-10 19:45:00,80.1,56.2,29.59,WNW,297,0.0,0.0,44,0.00,,,0.00,VWS V14.00,2013-07-10 23:45:00,
2013-07-10 19:50:00,79.9,56.7,29.59,NW,309,0.0,0.0,45,0.00,,,0.00,VWS V14.00,2013-07-10 23:50:00,
2013-07-10 19:55:00,79.7,55.9,29.59,NW,309,0.0,0.0,44,0.00,,,0.00,VWS V14.00,2013-07-10 23:55:00,
2013-07-10 20:00:00,79.5,55.7,29.59,NW,309,0.0,0.0,44,0.00,,,0.00,VWS V14.00,2013-07-11 00:00:00,
2013-07-10 20:05:00,79.3,56.8,29.59,NW,309,0.0,0.0,46,0.00,,,0.00,VWS V14.00,2013-07-11 00:05:00,
2013-07-10 20:10:00,79.2,56.6,29.59,NW,309,0.0,0.0,46,0.00,,,0.00,VWS V14.00,2013-07-11 00:10:00,
2013-07-10 20:15:00,79.0,57.0,29.59,NW,309,0.0,0.0,47,0.00,,,0.00,VWS V14.00,2013-07-11 00:15:00,
2013-07-10 20:20:00,78.6,56.7,29.59,NW,309,0.0,0.0,47,0.00,,,0.00,VWS V14.00,2013-07-11 00:20:00,
2013-07-10 20:25:00,78.6,57.3,29.59,NW,309,0.0,0.0,48,0.00,,,0.00,VWS V14.00,2013-07-11 00:25:00,
2013-07-10 20:30:00,78.4,57.7,29.59,NW,309,0.0,0.0,49,0.00,,,0.00,VWS V14.00,2013-07-11 00:30:00,
2013-07-10 20:35:00,78.3,58.1,29.59,NW,309,0.0,0.0,50,0.00,,,0.00,VWS V14.00,2013-07-11 00:35:00,
2013-07-10 20:40:00,78.1,58.0,29.59,NW,309,0.0,0.0,50,0.00,,,0.00,VWS V14.00,2013-07-11 00:40:00,
2013-07-10 20:45:00,77.7,58.2,29.59,NW,309,0.0,0.0,51,0.00,,,0.00,VWS V14.00,2013-07-11 00:45:00,
2013-07-10 20:50:00,77.5,58.0,29.59,NW,309,0.0,0.0,51,0.00,,,0.00,VWS V14.00,2013-07-11 00:50:00,
2013-07-10 20:55:00,77.4,57.8,29.59,NW,309,0.0,0.0,51,0.00,,,0.00,VWS V14.00,2013-07-11 00:55:00,
2013-07-10 21:00:00,77.0,58.0,29.59,NW,309,0.0,0.0,52,0.00,,,0.00,VWS V14.00,2013-07-11 01:00:00,
2013-07-10 21:05:00,76.8,58.4,29.59,NW,309,0.0,0.0,53,0.00,,,0.00,VWS V14.00,2013-07-11 01:05:00,
2013-07-10 21:10:00,76.6,58.8,29.59,NW,309,0.0,0.0,54,0.00,,,0.00,VWS V14.00,2013-07-11 01:10:00,
2013-07-10 21:15:00,76.6,59.3,29.59,NW,309,0.0,0.0,55,0.00,,,0.00,VWS V14.00,2013-07-11 01:15:00,
2013-07-10 21:20:00,76.5,59.1,29.59,NW,309,0.0,0.0,55,0.00,,,0.00,VWS V14.00,2013-07-11 01:20:00,
2013-07-10 21:25:00,76.5,59.6,29.59,NW,309,0.0,0.0,56,0.00,,,0.00,VWS V14.00,2013-07-11 01:25:00,
2013-07-10 21:30:00,76.5,59.6,29.59,WSW,244,0.0,0.0,56,0.00,,,0.00,VWS V14.00,2013-07-11 01:30:00,
2013-07-10 21:35:00,76.6,59.8,29.59,WNW,288,0.0,0.0,56,0.00,,,0.00,VWS V14.00,2013-07-11 01:35:00,
2013-07-10 21:40:00,76.8,60.0,29.59,WSW,239,0.0,0.0,56,0.00,,,0.00,VWS V14.00,2013-07-11 01:40:00,
2013-07-10 21:45:00,77.0,60.1,29.59,WSW,238,3.1,3.1,56,0.00,,,0.00,VWS V14.00,2013-07-11 01:45:00,
2013-07-10 21:50:00,77.2,59.3,29.59,WSW,238,0.0,0.0,54,0.00,,,0.00,VWS V14.00,2013-07-11 01:50:00,
2013-07-10 21:55:00,77.2,58.7,29.59,SW,222,2.2,2.2,53,0.00,,,0.00,VWS V14.00,2013-07-11 01:55:00,
2013-07-10 22:00:00,77.4,58.9,29.59,WSW,246,0.0,2.7,53,0.00,,,0.00,VWS V14.00,2013-07-11 02:00:00,
2013-07-10 22:05:00,77.5,58.5,29.59,West,263,2.7,3.6,52,0.00,,,0.00,VWS V14.00,2013-07-11 02:05:00,
2013-07-10 22:10:00,77.5,58.5,29.59,WSW,238,3.1,4.0,52,0.00,,,0.00,VWS V14.00,2013-07-11 02:10:00,
2013-07-10 22:15:00,77.7,58.7,29.59,NW,321,2.2,3.1,52,0.00,,,0.00,VWS V14.00,2013-07-11 02:15:00,
2013-07-10 22:20:00,77.5,56.9,29.59,West,262,7.2,7.2,49,0.00,,,0.00,VWS V14.00,2013-07-11 02:20:00,
2013-07-10 22:25:00,77.0,54.1,29.62,SW,220,3.6,6.3,45,0.00,,,0.00,VWS V14.00,2013-07-11 02:25:00,
2013-07-10 22:30:00,76.8,53.9,29.62,WSW,247,4.0,4.0,45,0.00,,,0.00,VWS V14.00,2013-07-11 02:30:00,
2013-07-10 22:35:00,76.5,55.3,29.62,West,275,0.0,4.0,48,0.04,,,0.04,VWS V14.00,2013-07-11 02:35:00,
2013-07-10 22:40:00,75.7,55.8,29.62,SSW,192,0.0,0.0,50,0.04,,,0.04,VWS V14.00,2013-07-11 02:40:00,
2013-07-10 22:45:00,74.8,56.6,29.62,SW,235,2.2,2.2,53,0.04,,,0.04,VWS V14.00,2013-07-11 02:45:00,
2013-07-10 22:50:00,74.5,56.8,29.62,SW,228,0.0,2.2,54,0.08,,,0.08,VWS V14.00,2013-07-11 02:50:00,
2013-07-10 22:55:00,73.8,57.6,29.62,West,280,3.1,3.1,57,0.08,,,0.08,VWS V14.00,2013-07-11 02:55:00,
2013-07-10 23:00:00,73.0,58.3,29.62,SW,230,0.0,0.0,60,0.08,,,0.08,VWS V14.00,2013-07-11 03:00:00,
2013-07-10 23:05:00,72.7,59.4,29.62,SW,221,0.0,3.6,63,0.24,,,0.24,VWS V14.00,2013-07-11 03:05:00,
2013-07-10 23:10:00,72.0,59.6,29.62,SW,234,0.0,0.0,65,0.35,,,0.35,VWS V14.00,2013-07-11 03:10:00,
2013-07-10 23:15:00,71.8,59.8,29.62,SW,228,0.0,0.0,66,0.39,,,0.39,VWS V14.00,2013-07-11 03:15:00,
2013-07-10 23:20:00,71.6,60.1,29.62,SW,228,0.0,0.0,67,0.39,,,0.39,VWS V14.00,2013-07-11 03:20:00,
2013-07-10 23:25:00,71.6,60.9,29.62,SSE,160,0.0,0.0,69,0.39,,,0.39,VWS V14.00,2013-07-11 03:25:00,
2013-07-10 23:30:00,71.6,61.3,29.62,SSE,160,0.0,0.0,70,0.39,,,0.39,VWS V14.00,2013-07-11 03:30:00,
2013-07-10 23:35:00,71.8,61.5,29.62,SSE,160,0.0,0.0,70,0.35,,,0.39,VWS V14.00,2013-07-11 03:35:00,
2013-07-10 23:40:00,71.8,62.3,29.59,SSE,161,0.0,0.0,72,0.39,,,0.43,VWS V14.00,2013-07-11 03:40:00,
2013-07-10 23:45:00,71.8,62.7,29.59,SSE,160,0.0,0.0,73,0.39,,,0.43,VWS V14.00,2013-07-11 03:45:00,
2013-07-10 23:50:00,71.8,63.1,29.59,SSE,161,0.0,0.0,74,0.35,,,0.43,VWS V14.00,2013-07-11 03:50:00,
2013-07-10 23:55:00,71.8,63.4,29.59,SSE,161,0.0,0.0,75,0.35,,,0.43,VWS V14.00,2013-07-11 03:55:00,